Polfoss — V2PN7 — position and weather

sailwx.info

Track history (hours):
 
Tides and Currents Weather Stations Pressure Air Temp Water Temp Dewpoint Dewpoint Depression Visibility Wind Speed Wind Dir Waves Ship Positions

Polfoss

Last reported at 2014-Aug-27 16:32 UTC. Time now 2014-Aug-29 16:22 UTC.
Position N 70°40' E 023°32'.

Length 82 m; draft 6 m.

Type: Cargo ship. MMSI: 305081000.

Date/timePositionNaut miles runAvg speedWind from/ knotsBaromVisibWave heightAir tempDewpointWater temp
2014-Aug-27 16:32N 70°40' E 023°32'3 2.9
2014-Aug-27 15:33N 70°38' E 023°40'1413.5
2014-Aug-27 14:31N 70°32' E 023°02'9314.7
2014-Aug-27 08:10N 69°45' E 019°05'610.3
2014-Aug-27 07:33N 69°39' E 018°58'0 0.0
2014-Aug-27 06:33N 69°39' E 018°58'0 0.0
2014-Aug-27 05:33N 69°39' E 018°58'4 3.9
2014-Aug-27 04:33N 69°36' E 018°55'4 0.9
2014-Aug-27 00:04N 69°32' E 018°54'150 7.2
2014-Aug-26 03:08N 67°41' E 014°15'815.0
2014-Aug-26 02:34N 67°33' E 014°20'1313.5
2014-Aug-26 01:34N 67°19' E 014°19'1514.9
2014-Aug-26 00:31N 67°06' E 013°59'1614.1
2014-Aug-25 23:23N 66°55' E 013°29'13 3.3
2014-Aug-25 19:19N 66°44' E 013°12'1214.2
2014-Aug-25 18:30N 66°33' E 013°01'1513.9
2014-Aug-25 17:26N 66°18' E 012°56'1414.6
2014-Aug-25 16:30N 66°06' E 012°43'5711.6
2014-Aug-25 11:34N 65°12' E 011°53'1514.5
2014-Aug-25 10:34N 64°60' E 011°36'1515.1
2014-Aug-25 09:33N 64°50' E 011°10'  
2014-Aug-22 12:14N 53°51' E 004°53'2313.9
2014-Aug-22 10:34N 53°28' E 004°44'5913.4
2014-Aug-22 06:11N 52°34' E 004°07'812.6
2014-Aug-22 05:34N 52°30' E 004°18'1111.0
2014-Aug-22 04:33N 52°28' E 004°36'1 0.9
2014-Aug-22 03:31N 52°28' E 004°37'2 1.5
2014-Aug-22 02:31N 52°28' E 004°40'0 0.0
2014-Aug-22 01:33N 52°28' E 004°40'0 0.0
2014-Aug-22 00:32N 52°28' E 004°40'0 0.0
2014-Aug-21 23:32N 52°28' E 004°40'0 0.0
2014-Aug-21 22:31N 52°28' E 004°40'0 0.0
2014-Aug-21 21:33N 52°28' E 004°40'0 0.0
2014-Aug-21 20:33N 52°28' E 004°40'0 0.0
2014-Aug-21 19:32N 52°28' E 004°40'0 0.0
2014-Aug-21 18:31N 52°28' E 004°40'0 0.0
2014-Aug-21 17:31N 52°28' E 004°40'0 0.0
2014-Aug-21 16:33N 52°28' E 004°40'0 0.0
2014-Aug-21 15:32N 52°28' E 004°40'0 0.0
2014-Aug-21 14:32N 52°28' E 004°40'0 0.0
2014-Aug-21 13:31N 52°28' E 004°40'0 0.0
2014-Aug-21 12:31N 52°28' E 004°40'0 0.0
2014-Aug-21 11:33N 52°28' E 004°40'0 0.0
2014-Aug-21 10:32N 52°28' E 004°40'0 0.0
2014-Aug-21 09:32N 52°28' E 004°40'0 0.0
2014-Aug-21 08:31N 52°28' E 004°40'0 0.0
2014-Aug-21 07:33N 52°28' E 004°40'0 0.0
2014-Aug-21 06:33N 52°28' E 004°40'3 2.8
2014-Aug-21 05:33N 52°28' E 004°35'9 9.2
2014-Aug-21 04:33N 52°29' E 004°20'1413.7
2014-Aug-21 03:33N 52°36' E 004°01'1515.1
2014-Aug-21 02:33N 52°40' E 003°37'7214.4
2014-Aug-20 21:31N 53°07' E 001°46'1414.0
2014-Aug-20 20:31N 53°13' E 001°25'3314.4
2014-Aug-20 18:15N 53°26' E 000°35'1014.5
2014-Aug-20 17:33N 53°30' E 000°20'1312.6
2014-Aug-20 16:33N 53°35' E 000°00'7 7.3
2014-Aug-20 15:32N 53°38' W 000°11'0 0.1
2014-Aug-20 14:32N 53°38' W 000°11'0 0.0
2014-Aug-20 13:28N 53°38' W 000°11'0 0.0
2014-Aug-20 12:31N 53°38' W 000°11'0 0.0
2014-Aug-20 11:33N 53°38' W 000°11'0 0.0
2014-Aug-20 10:33N 53°38' W 000°11'0 0.0
2014-Aug-20 09:29N 53°38' W 000°11'0 0.0
2014-Aug-20 08:28N 53°38' W 000°11'0 0.0
2014-Aug-20 07:31N 53°38' W 000°11'0 0.0
2014-Aug-20 06:34N 53°38' W 000°11'0 0.0
2014-Aug-20 05:30N 53°38' W 000°11'0 0.0
2014-Aug-20 04:29N 53°38' W 000°11'0 0.0
2014-Aug-20 03:25N 53°38' W 000°11'0 0.0
2014-Aug-20 02:28N 53°38' W 000°11'0 0.0
2014-Aug-20 01:30N 53°38' W 000°11'0 0.0
2014-Aug-20 00:23N 53°38' W 000°11'0 0.0
2014-Aug-19 23:32N 53°38' W 000°11'0 0.0
2014-Aug-19 22:31N 53°38' W 000°11'0 0.0
2014-Aug-19 21:31N 53°38' W 000°11'0 0.0
2014-Aug-19 20:33N 53°38' W 000°11'0 0.0
2014-Aug-19 19:23N 53°38' W 000°11'0 0.0
2014-Aug-19 18:26N 53°38' W 000°11'0 0.0
2014-Aug-19 17:31N 53°38' W 000°11'0 0.0
2014-Aug-19 16:06N 53°38' W 000°11'0 0.0
2014-Aug-19 15:30N 53°38' W 000°11'0 0.0
2014-Aug-19 14:29N 53°38' W 000°11'0 0.0
2014-Aug-19 13:26N 53°38' W 000°11'0 0.0
2014-Aug-19 12:22N 53°38' W 000°11'0 0.0
2014-Aug-19 11:21N 53°38' W 000°11'0 0.0
2014-Aug-19 10:27N 53°38' W 000°11'0 0.0
2014-Aug-19 09:29N 53°38' W 000°11'0 0.0
2014-Aug-19 08:32N 53°38' W 000°11'0 0.0
2014-Aug-19 07:26N 53°38' W 000°11'0 0.0
2014-Aug-19 06:32N 53°38' W 000°11'0 0.0
2014-Aug-19 05:06N 53°38' W 000°11'0 0.0
2014-Aug-19 04:31N 53°38' W 000°11'0 0.0
2014-Aug-19 03:33N 53°38' W 000°11'0 0.0
2014-Aug-19 02:29N 53°38' W 000°11'0 0.0
2014-Aug-19 01:31N 53°38' W 000°11'0 0.0
2014-Aug-19 00:33N 53°38' W 000°11'0 0.0
2014-Aug-18 23:31N 53°38' W 000°11'0 0.0
2014-Aug-18 22:18N 53°38' W 000°11'0 0.0
2014-Aug-18 21:23N 53°38' W 000°11'0 0.0
2014-Aug-18 20:32N 53°38' W 000°11'0 0.0
2014-Aug-18 19:18N 53°38' W 000°11'0 0.0
2014-Aug-18 18:26N 53°38' W 000°11'0 0.0
2014-Aug-18 17:32N 53°38' W 000°11'0 0.0
2014-Aug-18 16:31N 53°38' W 000°11'0 0.0
2014-Aug-18 15:21N 53°38' W 000°11'0 0.0
2014-Aug-18 14:24N 53°38' W 000°11'0 0.0
2014-Aug-18 13:20N 53°38' W 000°11'0 0.0
2014-Aug-18 12:23N 53°38' W 000°11'0 0.0
2014-Aug-18 11:31N 53°38' W 000°11'0 0.0
2014-Aug-18 10:33N 53°38' W 000°11'0 0.0
2014-Aug-18 09:30N 53°38' W 000°11'0 0.0
2014-Aug-18 08:29N 53°38' W 000°11'0 0.0
2014-Aug-18 07:19N 53°38' W 000°11'0 0.0
2014-Aug-18 06:28N 53°38' W 000°11'0 0.0
2014-Aug-18 05:34N 53°38' W 000°11'0 0.0
2014-Aug-18 04:21N 53°38' W 000°11'0 0.0
2014-Aug-18 03:29N 53°38' W 000°11'0 0.0
2014-Aug-18 02:19N 53°38' W 000°11'0 0.0
2014-Aug-18 01:07N 53°38' W 000°11'0 0.0
2014-Aug-18 00:30N 53°38' W 000°11'0 0.0
2014-Aug-17 18:33N 53°38' W 000°11'0 0.0
2014-Aug-17 17:33N 53°38' W 000°11'0 0.0
2014-Aug-17 16:33N 53°38' W 000°11'  
Track history (hours):
 
Tides and Currents Weather Stations Pressure Air Temp Water Temp Dewpoint Dewpoint Depression Visibility Wind Speed Wind Dir Waves Ship Positions

Polfoss

Last reported at 2014-Aug-27 16:32 UTC. Time now 2014-Aug-29 16:22 UTC.
Position N 70°40' E 023°32'.

Length 82 m; draft 6 m.

Type: Cargo ship. MMSI: 305081000.

Date/timePositionNaut miles runAvg speedWind from/ knotsBaromVisibWave heightAir tempDewpointWater temp
2014-Aug-27 16:32N 70°40' E 023°32'3 2.9
2014-Aug-27 15:33N 70°38' E 023°40'1413.5
2014-Aug-27 14:31N 70°32' E 023°02'9314.7
2014-Aug-27 08:10N 69°45' E 019°05'610.3
2014-Aug-27 07:33N 69°39' E 018°58'0 0.0
2014-Aug-27 06:33N 69°39' E 018°58'0 0.0
2014-Aug-27 05:33N 69°39' E 018°58'4 3.9
2014-Aug-27 04:33N 69°36' E 018°55'4 0.9
2014-Aug-27 00:04N 69°32' E 018°54'150 7.2
2014-Aug-26 03:08N 67°41' E 014°15'815.0
2014-Aug-26 02:34N 67°33' E 014°20'1313.5
2014-Aug-26 01:34N 67°19' E 014°19'1514.9
2014-Aug-26 00:31N 67°06' E 013°59'1614.1
2014-Aug-25 23:23N 66°55' E 013°29'13 3.3
2014-Aug-25 19:19N 66°44' E 013°12'1214.2
2014-Aug-25 18:30N 66°33' E 013°01'1513.9
2014-Aug-25 17:26N 66°18' E 012°56'1414.6
2014-Aug-25 16:30N 66°06' E 012°43'5711.6
2014-Aug-25 11:34N 65°12' E 011°53'1514.5
2014-Aug-25 10:34N 64°60' E 011°36'1515.1
2014-Aug-25 09:33N 64°50' E 011°10'  
2014-Aug-22 12:14N 53°51' E 004°53'2313.9
2014-Aug-22 10:34N 53°28' E 004°44'5913.4
2014-Aug-22 06:11N 52°34' E 004°07'812.6
2014-Aug-22 05:34N 52°30' E 004°18'1111.0
2014-Aug-22 04:33N 52°28' E 004°36'1 0.9
2014-Aug-22 03:31N 52°28' E 004°37'2 1.5
2014-Aug-22 02:31N 52°28' E 004°40'0 0.0
2014-Aug-22 01:33N 52°28' E 004°40'0 0.0
2014-Aug-22 00:32N 52°28' E 004°40'0 0.0
2014-Aug-21 23:32N 52°28' E 004°40'0 0.0
2014-Aug-21 22:31N 52°28' E 004°40'0 0.0
2014-Aug-21 21:33N 52°28' E 004°40'0 0.0
2014-Aug-21 20:33N 52°28' E 004°40'0 0.0
2014-Aug-21 19:32N 52°28' E 004°40'0 0.0
2014-Aug-21 18:31N 52°28' E 004°40'0 0.0
2014-Aug-21 17:31N 52°28' E 004°40'0 0.0
2014-Aug-21 16:33N 52°28' E 004°40'0 0.0
2014-Aug-21 15:32N 52°28' E 004°40'0 0.0
2014-Aug-21 14:32N 52°28' E 004°40'0 0.0
2014-Aug-21 13:31N 52°28' E 004°40'0 0.0
2014-Aug-21 12:31N 52°28' E 004°40'0 0.0
2014-Aug-21 11:33N 52°28' E 004°40'0 0.0
2014-Aug-21 10:32N 52°28' E 004°40'0 0.0
2014-Aug-21 09:32N 52°28' E 004°40'0 0.0
2014-Aug-21 08:31N 52°28' E 004°40'0 0.0
2014-Aug-21 07:33N 52°28' E 004°40'0 0.0
2014-Aug-21 06:33N 52°28' E 004°40'3 2.8
2014-Aug-21 05:33N 52°28' E 004°35'9 9.2
2014-Aug-21 04:33N 52°29' E 004°20'1413.7
2014-Aug-21 03:33N 52°36' E 004°01'1515.1
2014-Aug-21 02:33N 52°40' E 003°37'7214.4
2014-Aug-20 21:31N 53°07' E 001°46'1414.0
2014-Aug-20 20:31N 53°13' E 001°25'3314.4
2014-Aug-20 18:15N 53°26' E 000°35'1014.5
2014-Aug-20 17:33N 53°30' E 000°20'1312.6
2014-Aug-20 16:33N 53°35' E 000°00'7 7.3
2014-Aug-20 15:32N 53°38' W 000°11'0 0.1
2014-Aug-20 14:32N 53°38' W 000°11'0 0.0
2014-Aug-20 13:28N 53°38' W 000°11'0 0.0
2014-Aug-20 12:31N 53°38' W 000°11'0 0.0
2014-Aug-20 11:33N 53°38' W 000°11'0 0.0
2014-Aug-20 10:33N 53°38' W 000°11'0 0.0
2014-Aug-20 09:29N 53°38' W 000°11'0 0.0
2014-Aug-20 08:28N 53°38' W 000°11'0 0.0
2014-Aug-20 07:31N 53°38' W 000°11'0 0.0
2014-Aug-20 06:34N 53°38' W 000°11'0 0.0
2014-Aug-20 05:30N 53°38' W 000°11'0 0.0
2014-Aug-20 04:29N 53°38' W 000°11'0 0.0
2014-Aug-20 03:25N 53°38' W 000°11'0 0.0
2014-Aug-20 02:28N 53°38' W 000°11'0 0.0
2014-Aug-20 01:30N 53°38' W 000°11'0 0.0
2014-Aug-20 00:23N 53°38' W 000°11'0 0.0
2014-Aug-19 23:32N 53°38' W 000°11'0 0.0
2014-Aug-19 22:31N 53°38' W 000°11'0 0.0
2014-Aug-19 21:31N 53°38' W 000°11'0 0.0
2014-Aug-19 20:33N 53°38' W 000°11'0 0.0
2014-Aug-19 19:23N 53°38' W 000°11'0 0.0
2014-Aug-19 18:26N 53°38' W 000°11'0 0.0
2014-Aug-19 17:31N 53°38' W 000°11'0 0.0
2014-Aug-19 16:06N 53°38' W 000°11'0 0.0
2014-Aug-19 15:30N 53°38' W 000°11'0 0.0
2014-Aug-19 14:29N 53°38' W 000°11'0 0.0
2014-Aug-19 13:26N 53°38' W 000°11'0 0.0
2014-Aug-19 12:22N 53°38' W 000°11'0 0.0
2014-Aug-19 11:21N 53°38' W 000°11'0 0.0
2014-Aug-19 10:27N 53°38' W 000°11'0 0.0
2014-Aug-19 09:29N 53°38' W 000°11'0 0.0
2014-Aug-19 08:32N 53°38' W 000°11'0 0.0
2014-Aug-19 07:26N 53°38' W 000°11'0 0.0
2014-Aug-19 06:32N 53°38' W 000°11'0 0.0
2014-Aug-19 05:06N 53°38' W 000°11'0 0.0
2014-Aug-19 04:31N 53°38' W 000°11'0 0.0
2014-Aug-19 03:33N 53°38' W 000°11'0 0.0
2014-Aug-19 02:29N 53°38' W 000°11'0 0.0
2014-Aug-19 01:31N 53°38' W 000°11'0 0.0
2014-Aug-19 00:33N 53°38' W 000°11'0 0.0
2014-Aug-18 23:31N 53°38' W 000°11'0 0.0
2014-Aug-18 22:18N 53°38' W 000°11'0 0.0
2014-Aug-18 21:23N 53°38' W 000°11'0 0.0
2014-Aug-18 20:32N 53°38' W 000°11'0 0.0
2014-Aug-18 19:18N 53°38' W 000°11'0 0.0
2014-Aug-18 18:26N 53°38' W 000°11'0 0.0
2014-Aug-18 17:32N 53°38' W 000°11'0 0.0
2014-Aug-18 16:31N 53°38' W 000°11'0 0.0
2014-Aug-18 15:21N 53°38' W 000°11'0 0.0
2014-Aug-18 14:24N 53°38' W 000°11'0 0.0
2014-Aug-18 13:20N 53°38' W 000°11'0 0.0
2014-Aug-18 12:23N 53°38' W 000°11'0 0.0
2014-Aug-18 11:31N 53°38' W 000°11'0 0.0
2014-Aug-18 10:33N 53°38' W 000°11'0 0.0
2014-Aug-18 09:30N 53°38' W 000°11'0 0.0
2014-Aug-18 08:29N 53°38' W 000°11'0 0.0
2014-Aug-18 07:19N 53°38' W 000°11'0 0.0
2014-Aug-18 06:28N 53°38' W 000°11'0 0.0
2014-Aug-18 05:34N 53°38' W 000°11'0 0.0
2014-Aug-18 04:21N 53°38' W 000°11'0 0.0
2014-Aug-18 03:29N 53°38' W 000°11'0 0.0
2014-Aug-18 02:19N 53°38' W 000°11'0 0.0
2014-Aug-18 01:07N 53°38' W 000°11'0 0.0
2014-Aug-18 00:30N 53°38' W 000°11'0 0.0
2014-Aug-17 18:33N 53°38' W 000°11'0 0.0
2014-Aug-17 17:33N 53°38' W 000°11'0 0.0
2014-Aug-17 16:33N 53°38' W 000°11'  

Dump ship's entire track history